Time;durP1;ratioP1;P1;durP2;ratioP2;P2;SDS_P1;SDS_P2;PMS_P1;PMS_P2;Temp;Humidity;BMP_temperature;BMP_pressure;BME280_temperature;BME280_humidity;BME280_pressure;Samples;Min_cycle;Max_cycle;Signal;HPM_P1;HPM_P2
2021/05/31 00:00:38;;;;;;;2.43;2.23;;;;;;;10.53;100.00;101036.56;257316;1096;114501;-69
2021/05/31 00:05:58;;;;;;;2.80;2.43;;;;;;;10.48;100.00;101039.35;257541;1104;114761;-67
2021/05/31 00:11:00;;;;;;;3.05;2.38;;;;;;;10.44;100.00;101035.05;256902;1104;114565;-66
2021/05/31 00:16:03;;;;;;;2.75;2.20;;;;;;;10.34;100.00;101038.84;257088;1104;114532;-67
2021/05/31 00:21:05;;;;;;;2.70;2.50;;;;;;;10.35;100.00;101041.48;257398;1096;114929;-68
2021/05/31 00:26:08;;;;;;;3.50;2.65;;;;;;;10.26;100.00;101046.18;257087;1097;114750;-68
2021/05/31 00:31:12;;;;;;;5.53;3.50;;;;;;;10.04;100.00;101034.35;257518;1103;114823;-68
2021/05/31 00:36:22;;;;;;;3.53;2.85;;;;;;;9.83;100.00;101034.93;257402;1097;114838;-68
2021/05/31 00:41:26;;;;;;;4.55;3.40;;;;;;;9.82;100.00;101026.08;257871;1096;114611;-70
2021/05/31 00:46:28;;;;;;;5.93;3.13;;;;;;;9.68;100.00;101025.57;257370;1104;114491;-69
2021/05/31 00:51:35;;;;;;;4.00;3.00;;;;;;;9.58;100.00;101019.61;258227;1104;114562;-68
2021/05/31 00:56:41;;;;;;;4.20;3.03;;;;;;;9.50;100.00;101021.59;257815;1096;114650;-68
2021/05/31 01:01:49;;;;;;;4.75;3.53;;;;;;;9.44;100.00;101016.44;256324;1104;114275;-69
2021/05/31 01:07:30;;;;;;;3.15;2.78;;;;;;;9.32;100.00;101020.27;256773;1097;114341;-70
2021/05/31 01:12:56;;;;;;;3.83;2.95;;;;;;;9.17;100.00;101008.20;256697;1104;114276;-68
2021/05/31 01:18:07;;;;;;;5.00;2.93;;;;;;;8.93;100.00;101010.55;256625;1104;114590;-66
2021/05/31 01:23:15;;;;;;;4.05;3.15;;;;;;;8.92;100.00;101011.45;256824;1104;114335;-69
2021/05/31 01:28:50;;;;;;;3.23;2.90;;;;;;;8.81;100.00;101014.36;257766;1097;114629;-68
2021/05/31 01:33:56;;;;;;;4.58;2.73;;;;;;;8.68;100.00;101019.06;257640;1104;114862;-69
2021/05/31 01:38:59;;;;;;;4.20;3.45;;;;;;;8.64;100.00;101025.38;256948;1104;114298;-68
2021/05/31 01:44:02;;;;;;;4.03;3.28;;;;;;;8.47;100.00;101012.45;256934;1104;114565;-68
2021/05/31 01:49:04;;;;;;;6.90;4.08;;;;;;;8.49;100.00;101015.07;257104;1096;114401;-67
2021/05/31 01:54:08;;;;;;;3.83;3.28;;;;;;;8.35;100.00;101018.00;256713;1103;114521;-69
2021/05/31 01:59:13;;;;;;;5.65;3.50;;;;;;;8.18;100.00;101010.34;256982;1097;114527;-67
2021/05/31 02:04:18;;;;;;;3.65;3.08;;;;;;;8.13;100.00;101007.81;258742;1104;114231;-67
2021/05/31 02:09:22;;;;;;;4.40;3.23;;;;;;;8.16;100.00;101006.88;257340;1102;114516;-68
2021/05/31 02:14:31;;;;;;;6.70;3.40;;;;;;;8.07;100.00;101008.80;258429;1104;114768;-68
2021/05/31 02:19:37;;;;;;;3.33;2.93;;;;;;;7.94;100.00;101017.91;257188;1097;114246;-68
2021/05/31 02:24:47;;;;;;;3.80;3.33;;;;;;;8.02;100.00;101026.61;257561;1104;114230;-68
2021/05/31 02:29:58;;;;;;;5.88;3.75;;;;;;;7.82;100.00;101034.94;257376;1096;114089;-68
2021/05/31 02:35:00;;;;;;;4.57;3.50;;;;;;;7.86;100.00;101030.45;257873;1096;114413;-66
2021/05/31 02:40:08;;;;;;;8.73;3.90;;;;;;;7.88;100.00;101026.86;257994;1104;114713;-67
2021/05/31 02:45:12;;;;;;;3.73;3.40;;;;;;;7.82;100.00;101025.19;257808;1096;114633;-70
2021/05/31 02:50:15;;;;;;;3.28;2.75;;;;;;;7.78;100.00;101028.81;256824;1097;114124;-68
2021/05/31 02:55:22;;;;;;;3.80;3.50;;;;;;;7.69;100.00;101022.80;256771;1096;114985;-67
2021/05/31 03:00:27;;;;;;;3.83;3.20;;;;;;;7.78;100.00;101028.81;257352;1104;114405;-67
2021/05/31 03:05:30;;;;;;;4.93;3.40;;;;;;;7.99;100.00;101026.66;256959;1104;114745;-66
2021/05/31 03:10:32;;;;;;;5.80;3.58;;;;;;;8.10;100.00;101019.38;258011;1104;114368;-67
2021/05/31 03:15:34;;;;;;;3.28;2.90;;;;;;;8.21;100.00;101027.09;257118;1104;114369;-68
2021/05/31 03:20:36;;;;;;;3.43;3.13;;;;;;;8.45;100.00;101019.55;258563;1097;114762;-68
2021/05/31 03:25:41;;;;;;;5.53;3.50;;;;;;;8.48;100.00;101023.95;257422;1104;114560;-68
2021/05/31 03:30:43;;;;;;;4.48;3.60;;;;;;;8.66;100.00;101023.56;257432;1097;114520;-68
2021/05/31 03:35:46;;;;;;;4.55;3.48;;;;;;;8.76;100.00;101025.09;256573;1100;114654;-69
2021/05/31 03:40:48;;;;;;;5.48;3.68;;;;;;;8.90;100.00;101029.22;256291;1104;114625;-68
2021/05/31 03:45:51;;;;;;;7.45;4.10;;;;;;;9.04;100.00;101024.45;256730;1104;114704;-68
2021/05/31 03:51:08;;;;;;;3.93;3.33;;;;;;;9.15;100.00;101026.00;256565;1104;114264;-68
2021/05/31 03:56:12;;;;;;;4.18;2.83;;;;;;;9.20;100.00;101030.28;256216;1104;114262;-67
2021/05/31 04:01:15;;;;;;;3.68;2.80;;;;;;;9.25;100.00;101024.85;256107;1097;114267;-67
2021/05/31 04:11:39;;;;;;;4.37;3.17;;;;;;;9.28;100.00;101027.45;256290;1104;114318;-70
2021/05/31 04:16:44;;;;;;;6.08;3.20;;;;;;;9.28;100.00;101019.47;256711;1104;114157;-69
2021/05/31 04:21:49;;;;;;;;;;;;;;;9.34;100.00;101021.97;256591;1098;114266;-69
2021/05/31 04:26:51;;;;;;;3.93;2.85;;;;;;;9.51;100.00;101018.89;256552;1104;103105;-69
2021/05/31 04:31:53;;;;;;;6.80;4.48;;;;;;;9.62;100.00;101025.73;256320;1099;114646;-69
2021/05/31 04:36:56;;;;;;;3.80;3.40;;;;;;;9.64;100.00;101030.10;256462;1099;114392;-59
2021/05/31 04:41:58;;;;;;;5.05;3.35;;;;;;;9.76;100.00;101020.03;256379;1104;114832;-69
2021/05/31 04:47:00;;;;;;;3.98;3.40;;;;;;;9.78;100.00;101018.21;256430;1104;114538;-67
2021/05/31 04:52:03;;;;;;;3.77;2.93;;;;;;;9.80;100.00;101013.70;256523;1097;114332;-68
2021/05/31 04:57:12;;;;;;;5.08;2.95;;;;;;;9.86;100.00;101014.42;256999;1097;114467;-68
2021/05/31 05:02:14;;;;;;;4.10;3.70;;;;;;;9.95;100.00;101018.61;256695;1098;114437;-72
2021/05/31 05:07:18;;;;;;;6.25;4.00;;;;;;;9.97;100.00;101016.79;257093;1100;114184;-70
2021/05/31 05:12:21;;;;;;;7.50;3.33;;;;;;;10.04;100.00;101029.02;256714;1104;114257;-68
2021/05/31 05:17:23;;;;;;;6.15;3.43;;;;;;;10.14;100.00;101026.97;257237;1104;114963;-67
2021/05/31 05:22:25;;;;;;;4.43;3.23;;;;;;;10.36;100.00;101040.58;257376;1098;114375;-67
2021/05/31 05:27:28;;;;;;;5.45;4.50;;;;;;;10.64;100.00;101036.24;257114;1100;115011;-68
2021/05/31 05:32:30;;;;;;;5.13;3.45;;;;;;;10.66;100.00;101039.74;257142;1100;114794;-67
2021/05/31 05:37:42;;;;;;;5.85;3.68;;;;;;;10.58;100.00;101039.09;257381;1100;114878;-69
2021/05/31 05:47:47;;;;;;;4.33;3.47;;;;;;;10.88;100.00;101042.61;257111;1104;114442;-66
2021/05/31 05:52:49;;;;;;;4.03;2.70;;;;;;;11.03;100.00;101029.72;257125;1104;114931;-67
2021/05/31 05:57:52;;;;;;;5.40;3.23;;;;;;;11.23;100.00;101027.28;257870;1104;114665;-69
2021/05/31 06:02:55;;;;;;;6.78;4.40;;;;;;;11.27;100.00;101028.05;257803;1099;114991;-67
2021/05/31 06:07:58;;;;;;;5.20;3.40;;;;;;;11.31;100.00;101027.05;256944;1098;115043;-69
2021/05/31 06:13:00;;;;;;;4.93;3.20;;;;;;;11.33;100.00;101022.51;258224;1099;113710;-68
2021/05/31 06:18:09;;;;;;;4.88;3.00;;;;;;;11.47;100.00;101019.39;258056;1100;114524;-65
2021/05/31 06:23:17;;;;;;;5.25;2.95;;;;;;;11.67;99.92;101032.05;257830;1097;114939;-68
2021/05/31 06:28:22;;;;;;;7.20;2.60;;;;;;;11.82;98.59;101029.77;258090;1099;115267;-69
2021/05/31 06:33:24;;;;;;;4.10;2.35;;;;;;;11.76;95.99;101028.20;257636;1098;115128;-67
2021/05/31 06:38:26;;;;;;;6.13;2.13;;;;;;;11.88;96.71;101025.09;257692;1104;114087;-70
2021/05/31 06:43:29;;;;;;;3.90;3.00;;;;;;;11.96;98.60;101024.81;257949;1104;114823;-69
2021/05/31 06:48:35;;;;;;;8.00;2.60;;;;;;;12.11;92.52;101020.77;257134;1100;114797;-71
2021/05/31 06:53:43;;;;;;;5.93;2.38;;;;;;;12.21;90.63;101032.84;258542;1100;114622;-69
2021/05/31 06:58:46;;;;;;;3.80;2.23;;;;;;;12.36;90.96;101031.42;259049;1104;114947;-67
2021/05/31 07:03:48;;;;;;;1.50;1.23;;;;;;;12.48;85.00;101026.54;259163;1087;113362;-67
2021/05/31 07:08:50;;;;;;;1.73;1.43;;;;;;;12.65;80.67;101023.22;257577;1104;114424;-68
2021/05/31 07:13:55;;;;;;;3.45;1.78;;;;;;;12.63;81.15;101025.06;256984;1104;114690;-68
2021/05/31 07:18:57;;;;;;;3.53;1.40;;;;;;;12.85;78.35;101017.95;257098;1104;114947;-67
2021/05/31 07:24:04;;;;;;;2.28;1.80;;;;;;;13.00;78.07;101010.25;257579;1105;114401;-70
2021/05/31 07:29:06;;;;;;;3.38;1.70;;;;;;;13.19;75.39;101015.73;257593;1104;114787;-68
2021/05/31 07:34:13;;;;;;;4.28;1.90;;;;;;;13.17;72.35;101007.77;256956;1099;114293;-69
2021/05/31 07:39:15;;;;;;;2.90;1.00;;;;;;;13.22;70.60;101010.23;257241;1099;114555;-68
2021/05/31 07:44:17;;;;;;;3.57;1.37;;;;;;;13.38;70.52;100999.81;256552;1104;114492;-69
2021/05/31 07:49:20;;;;;;;3.28;1.63;;;;;;;13.55;69.29;101004.45;257323;1104;114306;-68
2021/05/31 07:54:24;;;;;;;3.07;1.20;;;;;;;13.73;66.39;100989.39;257750;1098;114728;-68
2021/05/31 07:59:31;;;;;;;1.13;1.03;;;;;;;13.61;65.38;101001.50;258189;1104;114056;-69
2021/05/31 08:04:36;;;;;;;3.60;1.45;;;;;;;13.63;69.38;100993.39;256893;1104;114486;-68
2021/05/31 08:09:43;;;;;;;6.70;1.55;;;;;;;13.53;65.63;100995.59;257613;1100;114218;-69
2021/05/31 08:14:45;;;;;;;2.70;1.53;;;;;;;13.68;64.94;101000.30;257405;1098;114176;-70
2021/05/31 08:19:50;;;;;;;4.38;1.05;;;;;;;14.07;64.41;100981.63;258391;1104;115007;-70
2021/05/31 08:25:06;;;;;;;2.43;1.90;;;;;;;14.19;66.58;100997.19;257815;1104;115197;-68
2021/05/31 08:30:17;;;;;;;3.10;1.03;;;;;;;14.45;62.61;100993.27;258579;1104;114762;-69
2021/05/31 08:35:19;;;;;;;2.15;1.30;;;;;;;14.63;61.40;100980.81;257123;1104;114137;-68
2021/05/31 08:40:21;;;;;;;1.20;1.10;;;;;;;14.86;63.29;100975.33;257639;1104;114285;-68
2021/05/31 08:45:26;;;;;;;3.70;1.85;;;;;;;14.71;60.21;100972.44;257375;1099;114553;-67
2021/05/31 08:50:33;;;;;;;3.07;1.63;;;;;;;14.98;58.87;100974.72;256867;1099;114934;-70
2021/05/31 08:55:36;;;;;;;2.17;1.37;;;;;;;15.19;58.63;100977.28;257953;1104;115018;-68
2021/05/31 09:00:38;;;;;;;2.78;1.30;;;;;;;15.20;55.96;100962.91;257462;1104;114792;-68
2021/05/31 09:05:43;;;;;;;1.98;0.93;;;;;;;15.22;54.16;100969.09;257561;1104;114432;-69
2021/05/31 09:10:47;;;;;;;1.78;1.00;;;;;;;15.41;52.80;100972.56;258346;1104;114339;-68
2021/05/31 09:16:06;;;;;;;2.98;1.23;;;;;;;15.53;49.75;100970.19;257327;1099;114558;-68
2021/05/31 09:21:17;;;;;;;2.17;1.63;;;;;;;15.72;51.19;100953.98;258960;1088;114247;-68
2021/05/31 09:26:20;;;;;;;1.45;1.35;;;;;;;16.07;52.13;100954.80;257565;1098;114514;-69
2021/05/31 09:31:24;;;;;;;1.70;1.35;;;;;;;16.21;51.08;100956.75;257817;1104;114728;-70
2021/05/31 09:36:53;;;;;;;4.43;1.40;;;;;;;15.72;47.88;100959.36;257804;1104;114213;-71
2021/05/31 09:42:06;;;;;;;2.28;1.28;;;;;;;15.24;47.89;100961.80;257419;1104;114429;-69
2021/05/31 09:47:09;;;;;;;6.15;5.30;;;;;;;15.44;47.47;100950.91;258285;1098;114523;-67
2021/05/31 09:52:13;;;;;;;1.98;1.55;;;;;;;16.05;47.92;100943.28;257546;1104;114244;-69
2021/05/31 09:57:19;;;;;;;2.28;1.45;;;;;;;16.27;48.70;100934.04;257922;1104;114620;-70
2021/05/31 10:02:57;;;;;;;3.45;1.30;;;;;;;15.76;45.72;100951.05;257341;1099;114287;-69
2021/05/31 10:13:22;;;;;;;3.65;1.18;;;;;;;15.87;48.92;100946.94;257570;1105;114944;-69
2021/05/31 10:18:32;;;;;;;2.68;2.10;;;;;;;15.93;48.98;100949.30;257286;1098;114442;-69
2021/05/31 10:23:35;;;;;;;1.50;1.35;;;;;;;15.44;46.34;100950.05;258311;1104;114497;-73
2021/05/31 10:28:40;;;;;;;2.28;1.60;;;;;;;15.60;47.08;100939.36;257458;1100;114550;-68
2021/05/31 10:33:55;;;;;;;2.00;1.83;;;;;;;15.53;48.48;100943.32;258448;1104;114702;-70
2021/05/31 10:39:01;;;;;;;1.98;1.20;;;;;;;16.37;47.00;100924.48;257149;1104;114340;-68
2021/05/31 10:44:03;;;;;;;2.83;1.48;;;;;;;17.04;48.03;100923.42;257502;1104;114533;-69
2021/05/31 10:49:06;;;;;;;1.70;1.30;;;;;;;17.53;47.45;100922.33;259063;1098;114753;-68
2021/05/31 10:54:10;;;;;;;4.78;1.25;;;;;;;17.90;43.23;100913.78;256971;1104;114086;-69
2021/05/31 10:59:22;;;;;;;1.47;1.13;;;;;;;18.17;43.53;100913.91;257996;1099;114299;-67
2021/05/31 11:04:31;;;;;;;4.03;1.58;;;;;;;17.22;47.10;100908.00;257426;1104;114553;-69
2021/05/31 11:09:34;;;;;;;3.98;1.28;;;;;;;16.82;46.55;100913.02;256987;1104;114269;-68
2021/05/31 11:14:38;;;;;;;3.95;1.45;;;;;;;16.60;50.78;100898.10;257547;1098;114473;-69
2021/05/31 11:19:46;;;;;;;3.10;1.18;;;;;;;16.36;47.14;100911.13;257689;1098;114441;-69
2021/05/31 11:25:10;;;;;;;1.40;1.10;;;;;;;17.83;45.65;100889.90;259044;1100;114940;-68
2021/05/31 11:30:17;;;;;;;2.03;1.53;;;;;;;17.73;47.47;100895.96;257930;1100;114597;-66
2021/05/31 11:35:26;;;;;;;1.63;1.00;;;;;;;17.86;47.12;100898.77;258981;1104;114496;-68
2021/05/31 11:40:32;;;;;;;1.30;1.20;;;;;;;18.46;42.04;100894.98;257841;1098;114825;-69
2021/05/31 11:45:37;;;;;;;1.20;0.90;;;;;;;19.11;41.87;100887.98;257505;1104;114375;-68
2021/05/31 11:50:41;;;;;;;3.25;1.20;;;;;;;19.20;41.19;100892.77;257647;1098;114298;-70
2021/05/31 11:55:44;;;;;;;1.75;1.30;;;;;;;19.28;40.32;100884.12;258655;1104;114459;-69
2021/05/31 12:00:46;;;;;;;2.05;1.40;;;;;;;18.95;35.76;100867.44;257679;1099;115072;-69
2021/05/31 12:05:48;;;;;;;4.07;1.40;;;;;;;19.34;39.18;100875.61;258182;1099;114427;-69
2021/05/31 12:10:57;;;;;;;3.23;1.35;;;;;;;20.05;36.95;100867.91;257610;1098;115137;-69
2021/05/31 12:16:10;;;;;;;1.30;1.00;;;;;;;20.70;35.32;100863.14;257924;1099;114840;-70
2021/05/31 12:21:12;;;;;;;2.68;1.08;;;;;;;18.66;36.48;100854.98;257467;1100;114512;-69
2021/05/31 12:26:16;;;;;;;3.28;1.08;;;;;;;17.91;40.96;100873.22;258309;1104;114339;-69
2021/05/31 12:31:20;;;;;;;2.83;0.73;;;;;;;17.51;37.97;100862.25;258316;1104;114631;-71
2021/05/31 12:36:29;;;;;;;1.88;0.88;;;;;;;17.60;40.14;100858.11;257433;1104;114665;-70
2021/05/31 12:41:35;;;;;;;2.78;1.05;;;;;;;17.35;41.16;100863.19;257259;1104;114808;-72
2021/05/31 12:46:40;;;;;;;2.30;1.23;;;;;;;17.30;41.74;100857.22;257889;1104;114599;-69
2021/05/31 12:51:54;;;;;;;1.65;1.20;;;;;;;18.10;39.49;100842.43;258195;1098;114430;-68
2021/05/31 12:57:18;;;;;;;3.13;1.98;;;;;;;17.71;39.21;100846.66;258561;1100;114632;-69
2021/05/31 13:02:21;;;;;;;3.67;1.70;;;;;;;17.33;41.04;100854.34;259292;1098;114357;-71
2021/05/31 13:07:24;;;;;;;2.33;1.20;;;;;;;17.61;39.11;100847.25;259525;1099;114630;-71
2021/05/31 13:12:33;;;;;;;1.78;1.00;;;;;;;17.82;38.40;100838.77;257221;1104;114329;-69
2021/05/31 13:17:37;;;;;;;2.33;1.05;;;;;;;18.04;39.87;100837.44;257785;1100;114243;-70
2021/05/31 13:22:40;;;;;;;2.10;1.13;;;;;;;18.36;37.91;100831.75;258963;1100;114263;-69
2021/05/31 13:27:42;;;;;;;2.25;0.88;;;;;;;18.18;37.50;100825.73;258868;1100;114156;-69
2021/05/31 13:33:12;;;;;;;2.10;1.23;;;;;;;18.14;38.70;100827.77;257028;1099;114233;-69
2021/05/31 13:38:14;;;;;;;1.23;1.10;;;;;;;18.35;37.47;100820.11;257254;1104;114784;-67
2021/05/31 13:43:22;;;;;;;3.90;1.28;;;;;;;18.70;37.97;100818.70;256716;1100;114481;-71
2021/05/31 13:48:31;;;;;;;2.67;1.53;;;;;;;18.86;37.58;100808.59;257307;1104;114483;-69
2021/05/31 13:53:34;;;;;;;1.63;0.98;;;;;;;18.74;36.92;100798.64;256678;1098;114118;-68
2021/05/31 13:58:36;;;;;;;2.30;1.15;;;;;;;17.96;38.39;100816.33;257210;1104;114594;-73
2021/05/31 14:03:38;;;;;;;1.77;0.97;;;;;;;17.57;37.84;100816.04;257464;1100;114280;-72
2021/05/31 14:08:41;;;;;;;4.65;0.85;;;;;;;17.44;35.83;100815.08;256948;1100;114115;-71
2021/05/31 14:13:43;;;;;;;2.58;1.00;;;;;;;17.99;37.74;100811.61;257599;1098;114695;-70
2021/05/31 14:18:52;;;;;;;2.73;1.23;;;;;;;18.71;36.19;100804.23;258210;1104;114672;-70
2021/05/31 14:23:54;;;;;;;2.20;1.10;;;;;;;18.47;36.31;100800.39;257198;1098;114540;-69
2021/05/31 14:28:56;;;;;;;2.58;0.98;;;;;;;18.17;37.68;100797.90;257190;1104;114453;-69
2021/05/31 14:33:58;;;;;;;1.98;1.20;;;;;;;17.67;38.48;100808.23;257115;1104;114361;-70
2021/05/31 14:39:01;;;;;;;2.20;0.90;;;;;;;17.95;37.90;100801.11;258064;1100;114465;-70
2021/05/31 14:44:03;;;;;;;2.33;1.10;;;;;;;17.84;37.74;100804.46;257869;1098;114703;-67
2021/05/31 14:49:05;;;;;;;1.60;0.85;;;;;;;18.42;36.52;100799.84;257330;1104;114899;-69
2021/05/31 14:54:08;;;;;;;1.20;1.10;;;;;;;18.64;35.28;100787.61;258022;1104;114750;-71
2021/05/31 14:59:10;;;;;;;1.18;0.90;;;;;;;18.74;34.93;100782.44;257623;1104;114087;-69
2021/05/31 15:04:15;;;;;;;5.15;1.10;;;;;;;18.49;37.62;100792.18;257456;1100;114679;-69
2021/05/31 15:09:20;;;;;;;1.78;1.10;;;;;;;17.81;37.86;100793.89;258033;1104;114624;-70
2021/05/31 15:14:27;;;;;;;1.18;0.93;;;;;;;17.43;38.29;100795.36;257572;1100;114494;-70
2021/05/31 15:19:36;;;;;;;1.30;1.08;;;;;;;17.21;38.33;100785.03;257541;1098;114538;-68
2021/05/31 15:24:40;;;;;;;2.65;1.15;;;;;;;17.15;37.94;100777.33;257081;1098;113270;-70
2021/05/31 15:29:45;;;;;;;3.28;1.10;;;;;;;18.34;35.71;100777.89;258268;1104;114194;-71
2021/05/31 15:34:50;;;;;;;7.38;1.90;;;;;;;17.78;37.34;100776.08;257063;1104;114732;-70
2021/05/31 15:39:52;;;;;;;4.20;1.28;;;;;;;18.69;35.28;100771.95;257680;1104;113994;-72
2021/05/31 15:44:56;;;;;;;2.45;1.13;;;;;;;20.58;31.96;100765.73;257987;1104;114818;-73
2021/05/31 15:50:00;;;;;;;;;;;;;;;20.15;33.13;100765.28;257968;1104;113987;-73
2021/05/31 15:55:09;;;;;;;1.68;1.33;;;;;;;20.40;34.37;100774.25;258201;1098;104302;-69
2021/05/31 16:00:19;;;;;;;2.17;1.20;;;;;;;19.86;34.19;100762.89;256903;1104;114630;-70
2021/05/31 16:05:22;;;;;;;2.18;1.05;;;;;;;19.31;34.76;100762.30;257603;1104;114717;-73
2021/05/31 16:10:24;;;;;;;1.48;0.95;;;;;;;19.00;35.08;100764.44;256861;1099;114267;-70
2021/05/31 16:15:26;;;;;;;3.08;2.80;;;;;;;18.87;34.59;100759.02;256736;1098;114397;-70
2021/05/31 16:20:28;;;;;;;2.93;1.20;;;;;;;18.57;33.94;100753.89;256603;1098;114604;-70
2021/05/31 16:25:30;;;;;;;2.18;1.10;;;;;;;18.38;35.16;100754.27;257150;1105;114779;-69
2021/05/31 16:30:33;;;;;;;2.93;1.00;;;;;;;18.35;37.02;100743.66;256610;1100;205975;-70
2021/05/31 16:35:36;;;;;;;1.95;1.58;;;;;;;18.22;37.17;100751.73;256848;1098;114763;-69
2021/05/31 16:40:43;;;;;;;3.60;2.70;;;;;;;18.14;37.35;100750.41;257000;1104;114534;-69
2021/05/31 16:45:46;;;;;;;3.25;1.80;;;;;;;18.07;38.70;100745.50;257013;1098;114603;-70
2021/05/31 16:50:48;;;;;;;1.05;0.90;;;;;;;17.83;35.90;100740.73;256930;1104;114430;-69
2021/05/31 16:55:51;;;;;;;1.88;1.20;;;;;;;17.79;38.90;100741.88;257174;1104;114583;-71
2021/05/31 17:00:53;;;;;;;1.78;1.38;;;;;;;17.61;38.06;100744.82;257171;1104;114487;-69
2021/05/31 17:05:56;;;;;;;1.78;1.40;;;;;;;17.52;38.73;100748.09;256394;1100;114592;-69
2021/05/31 17:21:02;;;;;;;2.10;1.40;;;;;;;17.25;37.69;100748.88;256777;1104;114276;-72
2021/05/31 17:26:05;;;;;;;2.43;1.30;;;;;;;17.16;38.32;100749.44;256545;1100;114347;-72
2021/05/31 17:36:16;;;;;;;2.70;1.50;;;;;;;17.04;40.48;100746.56;256732;1104;114612;-70
2021/05/31 17:41:23;;;;;;;3.78;1.40;;;;;;;16.97;39.58;100739.81;257635;1104;114303;-70
2021/05/31 17:46:29;;;;;;;1.75;1.50;;;;;;;16.93;40.03;100743.64;257475;1099;114666;-69
2021/05/31 17:51:32;;;;;;;3.43;1.30;;;;;;;16.85;40.15;100735.13;257182;1104;114907;-70
2021/05/31 17:56:35;;;;;;;2.65;1.60;;;;;;;16.79;40.18;100739.08;257196;1098;114340;-70
2021/05/31 18:01:42;;;;;;;1.83;1.18;;;;;;;16.67;39.66;100743.38;257084;1100;114411;-70
2021/05/31 18:06:44;;;;;;;8.97;5.53;;;;;;;16.57;40.67;100747.56;256780;1104;114255;-69
2021/05/31 18:11:47;;;;;;;3.53;2.18;;;;;;;16.50;40.30;100740.81;256680;1104;114511;-68
2021/05/31 18:16:53;;;;;;;5.60;1.85;;;;;;;16.37;41.79;100741.54;257256;1099;114452;-68
2021/05/31 18:21:55;;;;;;;5.13;2.58;;;;;;;16.26;42.47;100752.08;257500;1104;114365;-71
2021/05/31 18:26:57;;;;;;;4.53;2.63;;;;;;;16.18;41.83;100752.50;256612;1104;114400;-71
2021/05/31 18:31:59;;;;;;;5.38;2.78;;;;;;;15.96;42.55;100752.88;256913;1100;114292;-70
2021/05/31 18:37:10;;;;;;;3.70;2.13;;;;;;;15.83;42.45;100757.22;256449;1098;115439;-71
2021/05/31 18:42:20;;;;;;;7.00;2.50;;;;;;;15.75;41.98;100760.31;256637;1098;114380;-68
2021/05/31 18:47:22;;;;;;;7.00;2.15;;;;;;;15.58;43.19;100769.28;256269;1104;114333;-71
2021/05/31 18:52:24;;;;;;;6.15;2.95;;;;;;;15.47;45.51;100780.62;257280;1104;114468;-71
2021/05/31 18:57:27;;;;;;;4.90;2.70;;;;;;;15.04;48.41;100774.89;257523;1105;114842;-71
2021/05/31 19:02:29;;;;;;;4.13;2.50;;;;;;;15.02;47.43;100776.78;256797;1100;114322;-73
2021/05/31 19:07:36;;;;;;;4.38;2.68;;;;;;;14.90;48.98;100789.02;256190;1105;115009;-70
2021/05/31 19:12:41;;;;;;;6.60;2.53;;;;;;;14.75;49.97;100786.17;256608;1104;114593;-70
2021/05/31 19:17:44;;;;;;;;;;;;;;;14.64;52.07;100788.52;256412;1098;114319;-71
2021/05/31 19:22:46;;;;;;;5.70;2.80;;;;;;;14.47;54.01;100784.01;257098;1104;103069;-71
2021/05/31 19:27:48;;;;;;;3.10;2.10;;;;;;;14.41;53.17;100787.86;257880;1098;114450;-71
2021/05/31 19:32:51;;;;;;;3.73;2.08;;;;;;;14.45;52.79;100789.42;257131;1105;114809;-69
2021/05/31 19:37:53;;;;;;;5.20;2.67;;;;;;;14.26;53.98;100788.61;257961;1104;115154;-70
2021/05/31 19:42:58;;;;;;;6.30;2.68;;;;;;;14.03;55.83;100782.55;258274;1100;114282;-69
2021/05/31 19:48:00;;;;;;;4.73;3.20;;;;;;;13.78;54.71;100786.41;257515;1098;114266;-68
2021/05/31 19:53:10;;;;;;;4.35;2.43;;;;;;;13.79;57.68;100785.48;257495;1105;114546;-71
2021/05/31 20:03:18;;;;;;;3.63;2.58;;;;;;;13.49;57.46;100787.78;257182;1104;114358;-70
2021/05/31 20:08:20;;;;;;;3.83;2.83;;;;;;;13.41;58.62;100793.47;257366;1098;114348;-68
2021/05/31 20:13:22;;;;;;;4.25;2.73;;;;;;;13.34;60.05;100790.19;257138;1104;114517;-67
2021/05/31 20:18:27;;;;;;;7.05;3.28;;;;;;;13.32;63.52;100786.70;257769;1104;115200;-70
2021/05/31 20:23:29;;;;;;;3.88;3.45;;;;;;;13.71;52.99;100793.00;256206;1104;114197;-71
2021/05/31 20:28:37;;;;;;;5.87;4.37;;;;;;;13.66;53.63;100795.03;257908;1099;114266;-69
2021/05/31 20:33:39;;;;;;;4.40;2.88;;;;;;;13.93;48.21;100791.99;258247;1098;114291;-73
2021/05/31 20:38:42;;;;;;;5.53;4.53;;;;;;;13.85;49.37;100790.55;257654;1099;114607;-70
2021/05/31 20:43:51;;;;;;;9.53;6.25;;;;;;;13.39;61.97;100795.38;257808;1104;114302;-70
2021/05/31 20:48:55;;;;;;;10.65;7.40;;;;;;;12.93;68.82;100795.58;258629;1099;114551;-67
2021/05/31 20:53:57;;;;;;;7.93;5.70;;;;;;;12.37;68.74;100803.23;256970;1104;114879;-68
2021/05/31 20:59:00;;;;;;;4.23;3.75;;;;;;;12.47;73.47;100801.08;257654;1100;114438;-70
2021/05/31 21:04:04;;;;;;;5.90;3.73;;;;;;;12.53;74.47;100803.48;257854;1104;114395;-70
2021/05/31 21:09:11;;;;;;;5.53;3.35;;;;;;;12.43;77.10;100802.11;257015;1104;115228;-68
2021/05/31 21:14:14;;;;;;;4.05;3.45;;;;;;;12.49;73.86;100801.86;258137;1104;114740;-70
2021/05/31 21:19:18;;;;;;;5.63;3.87;;;;;;;12.58;78.62;100797.95;257578;1099;114691;-68
2021/05/31 21:24:22;;;;;;;6.35;3.53;;;;;;;12.52;80.28;100791.05;258314;1100;114680;-70
2021/05/31 21:29:24;;;;;;;7.63;4.35;;;;;;;12.18;79.67;100797.78;257374;1099;114574;-67
2021/05/31 21:34:26;;;;;;;7.47;4.50;;;;;;;11.98;79.65;100792.38;257333;1098;117142;-69
2021/05/31 21:39:31;;;;;;;5.33;4.20;;;;;;;11.80;80.46;100800.13;258673;1100;114875;-70
2021/05/31 21:44:39;;;;;;;7.60;4.73;;;;;;;11.68;83.84;100797.93;258539;1099;114832;-70
2021/05/31 21:49:42;;;;;;;8.55;4.68;;;;;;;11.54;80.53;100801.11;257485;1104;114620;-71
2021/05/31 21:54:47;;;;;;;4.13;3.78;;;;;;;11.56;77.90;100794.78;257423;1099;114372;-72
2021/05/31 21:59:50;;;;;;;6.13;3.70;;;;;;;11.57;80.61;100793.86;257971;1100;114636;-69
2021/05/31 22:04:55;;;;;;;5.75;3.90;;;;;;;11.35;86.01;100784.94;257831;1098;114288;-70
2021/05/31 22:09:58;;;;;;;5.28;3.85;;;;;;;11.46;86.11;100788.06;258197;1099;114978;-70
2021/05/31 22:15:17;;;;;;;4.27;3.57;;;;;;;11.56;82.57;100788.58;257036;1098;114583;-71
2021/05/31 22:20:25;;;;;;;6.90;4.45;;;;;;;11.33;90.68;100787.63;258644;1104;114839;-69
2021/05/31 22:25:30;;;;;;;5.35;4.33;;;;;;;11.14;93.61;100776.76;257752;1099;117655;-69
2021/05/31 22:30:50;;;;;;;6.25;5.43;;;;;;;11.07;92.60;100773.45;257759;1099;114632;-70
2021/05/31 22:35:59;;;;;;;5.28;4.28;;;;;;;11.22;89.43;100774.69;257861;1098;114895;-68
2021/05/31 23:02:28;;;;;;;8.08;5.25;;;;;;;10.15;97.56;100774.78;257195;1100;114685;-71
2021/05/31 23:12:40;;;;;;;6.13;4.60;;;;;;;10.28;95.91;100754.80;257338;1099;114507;-67
2021/05/31 23:17:42;;;;;;;6.98;4.85;;;;;;;10.34;95.32;100754.59;257201;1104;114267;-70
2021/05/31 23:22:45;;;;;;;8.30;4.90;;;;;;;10.01;99.51;100757.42;258196;1104;114450;-69
2021/05/31 23:27:47;;;;;;;5.50;4.83;;;;;;;9.94;99.01;100755.02;257428;1097;113404;-69
2021/05/31 23:32:50;;;;;;;5.60;4.50;;;;;;;9.97;97.98;100753.13;257707;1104;114336;-69
2021/05/31 23:37:53;;;;;;;10.70;7.83;;;;;;;10.06;97.81;100754.61;258549;1097;113932;-69
2021/05/31 23:43:02;;;;;;;7.63;5.53;;;;;;;9.80;98.48;100753.66;258066;1104;114282;-69
2021/05/31 23:48:11;;;;;;;7.55;6.03;;;;;;;9.55;100.00;100753.53;257747;1098;114357;-70
2021/05/31 23:53:13;;;;;;;8.48;7.60;;;;;;;9.64;100.00;100741.73;258094;1099;114210;-68
2021/05/31 23:58:15;;;;;;;9.58;6.60;;;;;;;9.61;100.00;100742.70;257611;1099;114620;-70
